Time;durP1;ratioP1;P1;durP2;ratioP2;P2;SDS_P1;SDS_P2;PMS_P1;PMS_P2;Temp;Humidity;BMP_temperature;BMP_pressure;BME280_temperature;BME280_humidity;BME280_pressure;Samples;Min_cycle;Max_cycle;Signal;HPM_P1;HPM_P2
2021/01/11 00:01:30;;;;;;;281.60;107.07;;;;;;;-5.36;78.58;99681.18;4429618;79;21143;-82
2021/01/11 00:07:32;;;;;;;278.17;102.97;;;;;;;-5.51;79.18;99682.41;4438979;79;21181;-82
2021/01/11 00:13:34;;;;;;;263.67;100.43;;;;;;;-5.56;79.35;99681.02;4423603;79;21146;-82
2021/01/11 00:19:35;;;;;;;276.00;104.53;;;;;;;-5.70;79.55;99691.83;4424611;79;21936;-82
2021/01/11 00:25:37;;;;;;;288.90;103.10;;;;;;;-5.71;79.41;99676.86;4426979;79;21127;-82
2021/01/11 00:31:38;;;;;;;286.00;104.40;;;;;;;-5.56;79.43;99674.35;4345872;80;21652;-82
2021/01/11 00:37:39;;;;;;;255.00;95.70;;;;;;;-5.50;79.11;99674.14;4272418;82;21612;-82
2021/01/11 00:43:41;;;;;;;276.67;102.47;;;;;;;-5.98;78.20;99672.91;4302342;82;21146;-82
2021/01/11 00:49:43;;;;;;;269.47;101.13;;;;;;;-5.96;79.34;99670.80;4280103;82;21473;-82
2021/01/11 00:55:44;;;;;;;278.77;101.57;;;;;;;-6.07;78.94;99671.75;4294652;82;21167;-82
2021/01/11 01:01:55;;;;;;;270.53;101.57;;;;;;;-6.03;79.33;99664.06;4269370;82;21161;-82
2021/01/11 01:07:58;;;;;;;241.47;93.13;;;;;;;-6.04;79.29;99661.92;4274056;82;21186;-83
2021/01/11 01:13:59;;;;;;;281.90;104.10;;;;;;;-6.10;79.47;99661.59;4292615;82;21629;-82
2021/01/11 01:20:06;;;;;;;277.07;100.87;;;;;;;-5.93;80.05;99653.48;4273843;82;21333;-82
2021/01/11 01:26:08;;;;;;;276.70;103.07;;;;;;;-6.14;78.86;99647.17;4432560;79;21157;-82
2021/01/11 01:32:09;;;;;;;272.67;103.40;;;;;;;-6.27;79.17;99639.56;4429762;79;21605;-82
2021/01/11 01:38:11;;;;;;;288.47;106.57;;;;;;;-6.42;79.10;99634.59;4442943;79;21324;-82
2021/01/11 01:44:12;;;;;;;289.07;108.60;;;;;;;-6.40;79.39;99633.28;4432740;79;21185;-82
2021/01/11 01:50:15;;;;;;;296.07;108.77;;;;;;;-6.49;79.69;99629.45;4430052;79;21137;-82
2021/01/11 01:56:17;;;;;;;229.70;85.73;;;;;;;-6.51;79.34;99627.56;4398474;80;21157;-82
2021/01/11 02:02:19;;;;;;;290.40;110.87;;;;;;;-6.64;79.38;99636.73;4429568;79;21611;-82
2021/01/11 02:08:45;;;;;;;280.00;104.43;;;;;;;-6.88;79.66;99629.25;4422420;80;21170;-82
2021/01/11 02:14:57;;;;;;;284.77;110.63;;;;;;;-6.77;79.91;99618.49;4423198;79;21145;-82
2021/01/11 02:21:25;;;;;;;264.03;103.87;;;;;;;-6.65;79.93;99615.17;4416652;80;21179;-82
2021/01/11 02:27:49;;;;;;;292.40;109.43;;;;;;;-6.67;79.68;99614.60;4429697;79;21163;-83
2021/01/11 02:33:57;;;;;;;300.93;111.33;;;;;;;-6.67;79.54;99609.27;4452876;79;21841;-82
2021/01/11 02:39:59;;;;;;;289.07;109.50;;;;;;;-6.74;79.84;99610.01;4398285;79;21170;-82
2021/01/11 02:46:00;;;;;;;253.50;100.60;;;;;;;-6.78;79.81;99608.88;4424534;80;21138;-83
2021/01/11 02:52:16;;;;;;;282.73;106.50;;;;;;;-6.77;79.52;99607.03;4449516;79;21171;-82
2021/01/11 02:58:50;;;;;;;288.10;106.80;;;;;;;-6.88;79.58;99610.09;4425900;79;21154;-82
2021/01/11 03:04:52;;;;;;;292.83;109.13;;;;;;;-7.00;79.38;99602.73;4429862;79;21608;-82
2021/01/11 03:10:54;;;;;;;285.30;109.47;;;;;;;-7.18;79.48;99611.54;4420634;80;21163;-82
2021/01/11 03:16:56;;;;;;;304.93;110.97;;;;;;;-7.21;79.80;99604.87;4433061;79;21141;-82
2021/01/11 03:22:57;;;;;;;276.27;104.87;;;;;;;-7.05;79.99;99599.22;4436069;80;21177;-83
2021/01/11 03:28:59;;;;;;;277.83;106.63;;;;;;;-7.03;79.65;99599.23;4426238;80;21182;-82
2021/01/11 03:35:00;;;;;;;266.20;100.63;;;;;;;-7.13;79.78;99602.30;4452228;79;21619;-82
2021/01/11 03:41:07;;;;;;;280.43;106.10;;;;;;;-7.07;79.45;99597.33;4465457;79;21191;-82
2021/01/11 03:47:10;;;;;;;267.43;103.13;;;;;;;-7.26;79.70;99590.67;4434489;79;21624;-82
2021/01/11 03:53:11;;;;;;;290.90;103.37;;;;;;;-7.26;79.70;99599.98;4427724;80;21173;-82
2021/01/11 03:59:13;;;;;;;286.47;105.07;;;;;;;-7.19;79.45;99598.78;4432951;79;21168;-83
2021/01/11 04:05:14;;;;;;;284.57;106.90;;;;;;;-7.35;79.40;99605.45;4438382;79;21126;-82
2021/01/11 04:11:22;;;;;;;297.40;105.40;;;;;;;-7.45;79.43;99601.30;4391816;80;21172;-81
2021/01/11 04:17:24;;;;;;;261.27;102.97;;;;;;;-7.56;79.34;99605.67;4387062;81;21158;-82
2021/01/11 04:23:25;;;;;;;305.57;112.60;;;;;;;-7.65;79.70;99600.48;4388433;80;21685;-82
2021/01/11 04:29:26;;;;;;;302.40;110.67;;;;;;;-7.53;80.68;99609.72;4395420;81;21574;-83
2021/01/11 04:35:29;;;;;;;294.00;110.23;;;;;;;-7.41;80.02;99599.27;4360578;80;21557;-82
2021/01/11 04:41:38;;;;;;;282.17;103.23;;;;;;;-7.38;80.17;99591.31;4358479;81;21481;-83
2021/01/11 04:47:40;;;;;;;287.43;103.30;;;;;;;-7.51;79.66;99592.45;4367284;81;21147;-82
2021/01/11 04:53:44;;;;;;;286.73;104.20;;;;;;;-7.49;80.10;99590.88;4394127;81;21164;-83
2021/01/11 04:59:49;;;;;;;285.60;104.07;;;;;;;-7.61;79.76;99587.52;4385141;81;21172;-82
2021/01/11 05:05:51;;;;;;;281.55;100.60;;;;;;;-7.72;79.63;99589.20;4398047;80;21143;-83
2021/01/11 05:11:52;;;;;;;285.23;102.27;;;;;;;-7.70;79.81;99591.64;4330085;82;21192;-82
2021/01/11 05:17:55;;;;;;;251.63;89.73;;;;;;;-7.67;80.29;99593.81;4324044;82;21617;-82
2021/01/11 05:23:56;;;;;;;256.17;94.83;;;;;;;-7.75;79.67;99602.98;4331197;82;21300;-82
2021/01/11 05:29:58;;;;;;;271.50;94.20;;;;;;;-7.79;79.94;99591.23;4335889;81;21152;-82
2021/01/11 05:36:10;;;;;;;237.77;93.57;;;;;;;-7.87;79.72;99589.48;4319088;82;21161;-82
2021/01/11 05:42:21;;;;;;;251.90;91.80;;;;;;;-7.92;79.74;99589.43;4325241;81;21858;-82
2021/01/11 05:48:22;;;;;;;230.80;89.63;;;;;;;-7.91;79.91;99589.19;4338582;81;21150;-82
2021/01/11 05:54:26;;;;;;;254.63;92.03;;;;;;;-7.93;79.82;99587.80;4326738;81;21341;-82
2021/01/11 06:00:34;;;;;;;253.87;91.97;;;;;;;-8.04;79.68;99580.19;4315666;81;21295;-82
2021/01/11 06:06:36;;;;;;;266.03;95.83;;;;;;;-8.21;79.66;99595.31;4335219;79;21182;-83
2021/01/11 06:12:39;;;;;;;273.90;96.47;;;;;;;-8.01;80.39;99602.29;4421688;79;21135;-83
2021/01/11 06:18:41;;;;;;;265.20;94.63;;;;;;;-8.05;79.81;99606.48;4417792;80;21222;-83
2021/01/11 06:24:45;;;;;;;254.20;91.50;;;;;;;-8.14;79.81;99615.36;4418013;79;21553;-82
2021/01/11 06:30:48;;;;;;;260.43;96.03;;;;;;;-8.21;80.48;99620.55;4419030;79;21138;-83
2021/01/11 06:36:49;;;;;;;250.47;95.50;;;;;;;-8.00;80.45;99625.69;4428881;79;21168;-83
2021/01/11 06:42:59;;;;;;;257.97;95.47;;;;;;;-7.98;80.42;99624.39;4419995;79;21163;-82
2021/01/11 06:49:04;;;;;;;250.43;94.80;;;;;;;-7.97;79.90;99631.31;4436948;79;21467;-83
2021/01/11 06:55:14;;;;;;;252.82;96.35;;;;;;;-7.90;80.37;99625.33;4396568;80;21141;-83
2021/01/11 07:01:22;;;;;;;254.27;95.80;;;;;;;-7.82;80.43;99628.11;4444129;79;21590;-83
2021/01/11 07:07:24;;;;;;;250.60;96.17;;;;;;;-7.86;80.25;99618.48;4410951;79;21170;-83
2021/01/11 07:13:26;;;;;;;265.87;98.03;;;;;;;-7.78;80.76;99619.95;4424463;79;21352;-82
2021/01/11 07:19:43;;;;;;;292.77;105.37;;;;;;;-7.72;80.80;99630.41;4439058;79;21161;-82
2021/01/11 07:25:48;;;;;;;275.87;103.20;;;;;;;-7.62;80.92;99631.09;4431000;79;21149;-82
2021/01/11 07:31:51;;;;;;;301.00;112.35;;;;;;;-7.50;80.96;99631.83;4440565;79;21141;-83
2021/01/11 07:44:43;;;;;;;297.30;121.17;;;;;;;-7.10;81.81;99629.75;4209183;83;21221;-82
2021/01/11 07:50:46;;;;;;;373.60;137.70;;;;;;;-6.73;81.88;99643.55;4435570;79;21319;-83
2021/01/11 07:56:50;;;;;;;328.60;127.23;;;;;;;-6.39;81.71;99640.76;4439202;79;21167;-82
2021/01/11 08:02:52;;;;;;;288.80;114.37;;;;;;;-6.05;82.10;99645.66;4430920;79;21627;-82
2021/01/11 08:08:56;;;;;;;281.43;112.50;;;;;;;-5.80;81.54;99638.39;4431771;79;21161;-82
2021/01/11 08:15:07;;;;;;;315.20;124.77;;;;;;;-5.57;81.84;99648.72;4439427;79;21154;-82
2021/01/11 08:21:10;;;;;;;307.83;122.83;;;;;;;-5.11;82.82;99642.14;4432170;79;21608;-83
2021/01/11 08:27:16;;;;;;;306.13;119.33;;;;;;;-4.55;82.17;99649.08;4345259;81;21162;-83
2021/01/11 08:33:19;;;;;;;;;;;;;;;-4.14;82.50;99644.97;4319723;81;28538;-83
2021/01/11 08:39:20;;;;;;;320.23;141.33;;;;;;;-3.80;81.86;99651.97;4208872;83;20197;-83
2021/01/11 08:45:35;;;;;;;251.50;111.27;;;;;;;-3.53;81.90;99657.36;4220043;83;21158;-83
2021/01/11 08:51:45;;;;;;;288.67;124.87;;;;;;;-3.14;81.61;99656.79;4215224;83;21162;-83
2021/01/11 08:57:59;;;;;;;237.50;102.40;;;;;;;-2.52;81.91;99663.34;4214884;83;21158;-84
2021/01/11 09:04:02;;;;;;;195.23;86.60;;;;;;;-2.11;81.32;99661.28;4171221;84;21209;-83
2021/01/11 09:10:30;;;;;;;183.43;80.53;;;;;;;-1.68;81.75;99662.62;4194063;83;21177;-83
2021/01/11 09:16:32;;;;;;;181.20;80.07;;;;;;;-1.17;81.21;99656.86;4166250;84;21153;-83
2021/01/11 09:22:37;;;;;;;158.60;73.67;;;;;;;-0.69;81.89;99663.38;4255714;82;21331;-84
2021/01/11 09:28:39;;;;;;;140.70;64.80;;;;;;;-0.20;80.37;99657.69;4267730;82;21599;-84
2021/01/11 09:34:41;;;;;;;131.85;60.45;;;;;;;-0.12;79.74;99649.79;4266463;82;21214;-84
2021/01/11 09:40:42;;;;;;;127.05;57.88;;;;;;;0.50;80.05;99640.52;4268693;82;21137;-85
2021/01/11 09:46:52;;;;;;;123.20;60.23;;;;;;;0.50;80.05;99640.52;4259877;82;21291;-85
2021/01/11 09:52:54;;;;;;;113.80;55.88;;;;;;;1.37;79.74;99636.85;4266844;82;21185;-85
2021/01/11 09:58:55;;;;;;;97.08;48.33;;;;;;;1.74;78.37;99637.75;4256874;82;21184;-84
2021/01/11 10:04:57;;;;;;;90.62;44.45;;;;;;;2.02;77.94;99633.91;4280454;82;22371;-85
2021/01/11 10:10:58;;;;;;;87.90;40.75;;;;;;;2.22;76.53;99630.20;4273531;81;21530;-85
2021/01/11 10:17:01;;;;;;;80.15;41.50;;;;;;;2.42;76.72;99620.27;4278351;82;21597;-84
2021/01/11 10:23:03;;;;;;;89.95;43.00;;;;;;;2.76;76.00;99619.16;4257247;81;22332;-85
2021/01/11 10:29:04;;;;;;;89.67;41.37;;;;;;;2.56;76.86;99618.31;4256011;82;21150;-85
2021/01/11 10:35:06;;;;;;;72.17;36.53;;;;;;;2.43;76.11;99611.05;4283607;82;21603;-85
2021/01/11 10:41:15;;;;;;;63.85;30.20;;;;;;;3.02;76.12;99593.05;4275048;82;21153;-85
2021/01/11 10:47:16;;;;;;;82.08;38.92;;;;;;;3.58;74.54;99588.81;4264516;81;21188;-85
2021/01/11 10:53:18;;;;;;;71.67;35.50;;;;;;;3.65;74.10;99584.53;4249904;82;21133;-85
2021/01/11 10:59:20;;;;;;;72.10;37.13;;;;;;;3.85;74.17;99566.35;4277551;81;21189;-85
2021/01/11 11:05:22;;;;;;;83.17;41.20;;;;;;;3.58;73.68;99565.26;4255640;82;21172;-85
2021/01/11 11:11:23;;;;;;;84.17;39.95;;;;;;;2.80;73.18;99557.94;4300726;81;21164;-85
2021/01/11 11:17:31;;;;;;;81.55;42.03;;;;;;;2.18;70.31;99556.27;4305920;81;21156;-86
2021/01/11 11:23:33;;;;;;;91.53;43.13;;;;;;;1.94;72.55;99540.11;4309265;81;21203;-85
2021/01/11 11:29:35;;;;;;;68.90;32.95;;;;;;;1.71;67.69;99533.09;4304653;81;21701;-85
2021/01/11 11:35:40;;;;;;;63.70;29.95;;;;;;;1.71;72.10;99522.30;4293916;81;21160;-85
2021/01/11 11:41:41;;;;;;;54.80;27.05;;;;;;;1.85;71.95;99520.35;4298003;81;21157;-86
2021/01/11 11:47:44;;;;;;;62.08;29.27;;;;;;;1.82;71.84;99507.47;4322223;81;21153;-85
2021/01/11 11:53:45;;;;;;;66.47;28.57;;;;;;;2.01;71.47;99506.17;4304954;81;21236;-85
2021/01/11 11:59:48;;;;;;;56.18;27.07;;;;;;;2.07;71.00;99497.42;4303758;81;21204;-85
2021/01/11 12:05:50;;;;;;;49.80;22.80;;;;;;;2.04;70.77;99492.06;4294915;81;21160;-85
2021/01/11 12:11:53;;;;;;;43.68;19.70;;;;;;;1.97;70.59;99482.80;4294624;81;21193;-85
2021/01/11 12:17:54;;;;;;;33.95;17.07;;;;;;;1.83;69.99;99472.06;4270151;82;21145;-85
2021/01/11 12:23:56;;;;;;;34.00;15.85;;;;;;;1.68;70.19;99468.35;4278664;82;21630;-84
2021/01/11 12:29:58;;;;;;;38.78;17.50;;;;;;;1.48;67.07;99464.23;4262017;82;21167;-85
2021/01/11 12:36:00;;;;;;;39.38;18.42;;;;;;;1.33;68.71;99451.06;4282192;82;21209;-85
2021/01/11 12:42:05;;;;;;;35.23;17.52;;;;;;;1.23;69.09;99454.53;4272582;82;21189;-85
2021/01/11 12:48:07;;;;;;;35.88;15.60;;;;;;;1.35;69.51;99442.66;4272914;82;21208;-84
2021/01/11 12:54:08;;;;;;;40.08;19.62;;;;;;;1.48;69.44;99448.59;4254282;82;21173;-85
2021/01/11 13:00:12;;;;;;;84.90;43.92;;;;;;;1.42;68.56;99440.36;4257556;81;21299;-86
2021/01/11 13:06:21;;;;;;;40.98;19.02;;;;;;;1.30;68.53;99444.92;4260808;82;21169;-84
2021/01/11 13:12:22;;;;;;;41.37;17.32;;;;;;;1.09;68.58;99442.98;4209872;82;21152;-85
2021/01/11 13:18:24;;;;;;;45.63;18.98;;;;;;;1.01;68.71;99447.73;4186010;83;21607;-85
2021/01/11 13:24:26;;;;;;;36.48;17.30;;;;;;;0.89;68.42;99437.44;4185990;83;21189;-84
2021/01/11 13:30:28;;;;;;;41.33;17.73;;;;;;;0.75;67.98;99439.34;4182302;83;21241;-85
2021/01/11 13:36:33;;;;;;;46.10;19.12;;;;;;;0.66;68.28;99439.80;4184017;84;21165;-85
2021/01/11 13:42:36;;;;;;;47.03;18.10;;;;;;;0.70;68.17;99435.43;4194408;83;21489;-85
2021/01/11 13:48:38;;;;;;;34.35;15.05;;;;;;;0.51;68.08;99430.69;4176454;83;21213;-85
2021/01/11 13:54:39;;;;;;;35.70;16.67;;;;;;;0.45;68.05;99433.77;4189531;83;21701;-85
2021/01/11 14:00:41;;;;;;;36.88;16.93;;;;;;;0.45;68.05;99433.77;4187413;84;21208;-84
2021/01/11 14:06:42;;;;;;;36.48;15.80;;;;;;;0.27;68.01;99409.08;4196950;83;21173;-85
2021/01/11 14:12:44;;;;;;;32.58;14.55;;;;;;;0.36;67.95;99431.52;4186914;83;21677;-85
2021/01/11 14:18:46;;;;;;;35.33;15.45;;;;;;;0.34;67.93;99429.66;4198362;83;21626;-84
2021/01/11 14:24:49;;;;;;;34.40;15.05;;;;;;;0.28;67.84;99429.51;4187366;83;21159;-84
2021/01/11 14:30:50;;;;;;;39.08;15.95;;;;;;;0.07;67.82;99426.38;4187218;85;21133;-83
2021/01/11 14:36:52;;;;;;;34.50;15.18;;;;;;;-0.11;68.01;99428.02;4196272;84;21154;-83
2021/01/11 14:42:54;;;;;;;38.42;17.17;;;;;;;-0.16;68.02;99426.75;4195285;83;21157;-83
2021/01/11 14:48:55;;;;;;;43.10;18.30;;;;;;;-0.23;68.00;99429.57;4190042;84;21176;-84
2021/01/11 14:54:57;;;;;;;42.43;20.07;;;;;;;-0.48;68.31;99428.09;4181984;84;21652;-84
2021/01/11 15:01:00;;;;;;;49.13;20.43;;;;;;;-0.65;68.58;99424.31;4171419;84;21306;-83
2021/01/11 15:07:03;;;;;;;49.10;21.77;;;;;;;-0.82;68.75;99427.52;4196277;85;21194;-83
2021/01/11 15:13:04;;;;;;;55.73;23.37;;;;;;;-1.13;68.66;99418.80;4198973;84;21177;-84
2021/01/11 15:19:06;;;;;;;59.53;26.40;;;;;;;-1.37;69.13;99420.70;4199042;85;21973;-84
2021/01/11 15:25:09;;;;;;;71.07;26.87;;;;;;;-1.46;69.48;99417.87;4206630;83;21149;-83
2021/01/11 15:31:11;;;;;;;103.90;42.37;;;;;;;-1.60;69.58;99424.45;4202276;84;21152;-84
2021/01/11 15:37:12;;;;;;;105.53;46.87;;;;;;;-1.78;69.76;99419.02;4203305;84;21190;-84
2021/01/11 15:43:16;;;;;;;105.33;45.90;;;;;;;-1.89;70.06;99421.53;4202473;84;21152;-83
2021/01/11 15:49:17;;;;;;;121.30;48.83;;;;;;;-1.95;70.16;99422.14;4202428;85;21939;-83
2021/01/11 15:55:20;;;;;;;130.63;53.77;;;;;;;-2.20;70.11;99414.86;4202553;84;21185;-83
2021/01/11 16:01:21;;;;;;;152.87;57.70;;;;;;;-2.39;70.45;99409.92;4203154;85;21169;-84
2021/01/11 16:07:22;;;;;;;152.27;57.57;;;;;;;-2.51;70.62;99402.78;4167683;84;21297;-83
2021/01/11 16:13:24;;;;;;;157.80;59.53;;;;;;;-2.74;70.58;99394.90;4219119;84;21245;-83
2021/01/11 16:19:26;;;;;;;217.27;81.90;;;;;;;-2.78;71.00;99395.20;4225744;84;21197;-83
2021/01/11 16:25:27;;;;;;;303.20;110.90;;;;;;;-2.73;71.16;99393.03;4229563;83;21157;-84
2021/01/11 16:31:31;;;;;;;237.97;85.90;;;;;;;-2.86;71.08;99388.28;4301976;82;21193;-85
2021/01/11 16:37:33;;;;;;;231.23;89.60;;;;;;;-2.91;71.37;99383.77;4300647;83;21133;-83
2021/01/11 16:43:35;;;;;;;152.93;65.87;;;;;;;-2.91;71.38;99382.98;4308684;83;21177;-84
2021/01/11 16:49:38;;;;;;;149.20;63.00;;;;;;;-3.11;70.95;99373.18;4270140;83;21717;-84
2021/01/11 16:55:40;;;;;;;142.87;63.53;;;;;;;-3.38;71.17;99376.80;4264291;82;21180;-84
2021/01/11 17:01:42;;;;;;;157.47;64.00;;;;;;;-3.49;71.58;99371.22;4283096;83;21153;-84
2021/01/11 17:07:43;;;;;;;177.77;75.97;;;;;;;-3.62;71.83;99373.95;4245396;83;21137;-83
2021/01/11 17:13:45;;;;;;;205.03;81.40;;;;;;;-3.70;71.90;99369.72;4296585;82;21945;-83
2021/01/11 17:19:47;;;;;;;189.43;72.30;;;;;;;-3.72;72.33;99360.63;4270217;82;21185;-83
2021/01/11 17:25:48;;;;;;;207.67;76.10;;;;;;;-3.89;72.06;99354.81;4285022;82;21181;-83
2021/01/11 17:31:50;;;;;;;195.30;77.27;;;;;;;-4.10;72.06;99355.92;4278193;83;21647;-84
2021/01/11 17:44:57;;;;;;;200.63;79.77;;;;;;;-4.29;72.87;99354.10;4237039;83;21153;-81
2021/01/11 17:50:58;;;;;;;191.37;73.90;;;;;;;-4.44;72.38;99350.91;4248377;82;21861;-84
2021/01/11 17:57:00;;;;;;;185.03;71.90;;;;;;;-4.57;73.29;99342.09;4213095;83;21168;-83
2021/01/11 18:03:02;;;;;;;183.50;74.50;;;;;;;-4.58;73.53;99346.37;4251685;83;21213;-84
2021/01/11 18:09:04;;;;;;;205.93;78.33;;;;;;;-4.64;73.19;99346.92;4243629;82;21165;-84
2021/01/11 18:15:09;;;;;;;185.63;70.70;;;;;;;-4.66;73.60;99346.37;4258311;82;21186;-83
2021/01/11 18:21:13;;;;;;;176.77;68.13;;;;;;;-4.78;73.30;99343.70;4234402;82;21698;-83
2021/01/11 18:27:15;;;;;;;197.07;75.40;;;;;;;-4.96;73.74;99346.36;4269137;82;21178;-83
2021/01/11 18:33:16;;;;;;;196.20;75.83;;;;;;;-5.03;74.18;99351.17;4235939;82;21592;-83
2021/01/11 18:39:18;;;;;;;204.87;80.00;;;;;;;-4.96;74.34;99343.69;4285517;82;21165;-83
2021/01/11 18:45:19;;;;;;;175.57;69.33;;;;;;;-5.06;74.01;99333.02;4218511;82;21607;-83
2021/01/11 18:51:21;;;;;;;184.30;71.13;;;;;;;-5.32;74.10;99337.50;4294606;82;21152;-83
2021/01/11 18:57:24;;;;;;;177.20;68.70;;;;;;;-5.38;74.60;99336.41;4328256;82;21691;-83
2021/01/11 19:03:25;;;;;;;213.63;79.53;;;;;;;-5.35;74.56;99340.70;4311154;81;21182;-84
2021/01/11 19:09:28;;;;;;;204.27;79.70;;;;;;;-5.29;74.81;99337.50;4226649;81;21166;-84
2021/01/11 19:15:29;;;;;;;223.67;86.27;;;;;;;-5.46;74.36;99325.73;4293027;82;21184;-83
2021/01/11 19:21:31;;;;;;;233.37;91.53;;;;;;;-5.56;75.01;99323.02;4276389;83;21166;-83
2021/01/11 19:27:33;;;;;;;233.70;90.80;;;;;;;-5.50;74.97;99322.52;4280112;83;21197;-83
2021/01/11 19:33:34;;;;;;;226.60;88.63;;;;;;;-5.55;74.78;99317.17;4268841;82;21168;-82
2021/01/11 19:39:36;;;;;;;242.73;93.33;;;;;;;-5.72;75.00;99314.73;4351098;82;21642;-83
2021/01/11 19:45:37;;;;;;;195.00;80.40;;;;;;;-5.65;75.43;99308.60;4270142;82;21173;-83
2021/01/11 19:51:40;;;;;;;250.57;93.10;;;;;;;-5.74;75.61;99306.70;4277286;82;21185;-84
2021/01/11 19:57:41;;;;;;;251.77;98.87;;;;;;;-5.85;75.04;99305.09;4274804;82;21144;-83
2021/01/11 20:03:52;;;;;;;259.93;101.97;;;;;;;-5.86;75.61;99307.50;4276046;82;21420;-83
2021/01/11 20:09:53;;;;;;;285.37;112.17;;;;;;;-6.02;74.98;99299.97;4240499;82;21173;-84
2021/01/11 20:15:55;;;;;;;274.23;110.67;;;;;;;-6.23;75.39;99284.94;4236368;83;21177;-83
2021/01/11 20:21:57;;;;;;;263.70;106.53;;;;;;;-6.31;75.84;99279.32;4249729;84;21670;-84
2021/01/11 20:27:58;;;;;;;288.80;109.17;;;;;;;-6.24;75.85;99279.35;4254342;82;21156;-84
2021/01/11 20:34:01;;;;;;;297.17;119.43;;;;;;;-6.33;75.75;99276.11;4264222;82;21177;-84
2021/01/11 20:40:05;;;;;;;292.90;113.13;;;;;;;-6.41;75.85;99272.59;4233846;82;21646;-83
2021/01/11 20:46:08;;;;;;;310.33;120.23;;;;;;;-6.58;75.99;99262.91;4279693;81;21153;-83
2021/01/11 20:52:09;;;;;;;315.03;122.27;;;;;;;-6.64;76.05;99271.16;4264805;82;21173;-83
2021/01/11 20:58:11;;;;;;;321.50;128.43;;;;;;;-6.93;75.86;99262.70;4339087;81;21142;-83
2021/01/11 21:04:13;;;;;;;321.03;119.00;;;;;;;-6.92;76.61;99253.65;4237843;82;21166;-83
2021/01/11 21:10:15;;;;;;;339.13;125.93;;;;;;;-6.80;76.78;99243.63;4234064;82;21631;-83
2021/01/11 21:16:17;;;;;;;342.80;127.50;;;;;;;-6.87;76.27;99235.58;4213591;82;21138;-83
2021/01/11 21:22:18;;;;;;;321.73;123.03;;;;;;;-6.96;76.45;99216.64;4212784;82;21330;-83
2021/01/11 21:28:20;;;;;;;300.90;117.53;;;;;;;-6.99;76.78;99226.98;4239114;82;21153;-83
2021/01/11 21:34:21;;;;;;;323.67;121.60;;;;;;;-7.08;76.97;99228.53;4245216;82;21172;-83
2021/01/11 21:40:23;;;;;;;339.07;128.10;;;;;;;-7.00;76.69;99222.73;4236965;82;21680;-83
2021/01/11 21:46:24;;;;;;;360.97;138.40;;;;;;;-6.97;76.73;99222.22;4236473;82;21173;-83
2021/01/11 21:52:26;;;;;;;371.20;141.27;;;;;;;-7.00;77.00;99208.09;4243481;82;21666;-83
2021/01/11 21:58:28;;;;;;;366.57;133.40;;;;;;;-7.09;76.48;99197.12;4259380;82;21583;-82
2021/01/11 22:04:30;;;;;;;333.27;128.80;;;;;;;-7.19;76.70;99182.95;4283931;81;21153;-83
2021/01/11 22:10:32;;;;;;;353.70;130.23;;;;;;;-7.09;76.99;99181.67;4249382;82;21174;-82
2021/01/11 22:16:34;;;;;;;359.60;134.97;;;;;;;-7.25;76.92;99170.13;4308769;81;21189;-82
2021/01/11 22:22:36;;;;;;;347.30;126.57;;;;;;;-7.12;76.79;99153.73;4306280;81;21626;-82
2021/01/11 22:28:39;;;;;;;368.67;134.43;;;;;;;-7.37;76.69;99156.22;4275019;81;21861;-82
2021/01/11 22:34:40;;;;;;;367.13;138.60;;;;;;;-7.41;77.03;99142.37;4311562;81;21852;-82
2021/01/11 22:40:42;;;;;;;377.43;138.77;;;;;;;-7.49;77.19;99144.17;4292520;81;21181;-83
2021/01/11 22:46:43;;;;;;;377.33;138.10;;;;;;;-7.48;77.53;99137.27;4260609;81;21181;-83
2021/01/11 22:52:44;;;;;;;430.33;153.10;;;;;;;-7.35;77.14;99129.38;4318312;81;21625;-83
2021/01/11 22:58:50;;;;;;;391.53;142.67;;;;;;;-7.64;76.40;99140.85;4284592;81;21172;-83
2021/01/11 23:04:52;;;;;;;401.00;144.40;;;;;;;-7.64;77.32;99136.86;4326061;81;21161;-82
2021/01/11 23:10:53;;;;;;;443.90;166.43;;;;;;;-7.75;77.09;99119.78;4333450;81;21174;-83
2021/01/11 23:17:03;;;;;;;480.30;173.70;;;;;;;-7.82;77.20;99121.32;4329345;81;21153;-83
2021/01/11 23:23:10;;;;;;;446.63;161.67;;;;;;;-7.80;77.20;99110.44;4322461;81;21160;-83
2021/01/11 23:29:12;;;;;;;459.73;169.80;;;;;;;-7.80;77.57;99101.94;4336138;81;21169;-83
2021/01/11 23:35:32;;;;;;;458.17;167.83;;;;;;;-7.84;77.19;99097.36;4320680;81;21295;-82
2021/01/11 23:41:42;;;;;;;461.27;163.80;;;;;;;-7.89;77.25;99100.78;4287545;81;21662;-83
2021/01/11 23:47:44;;;;;;;430.53;156.60;;;;;;;-7.94;77.40;99090.14;4281562;81;21120;-83
2021/01/11 23:53:45;;;;;;;427.37;153.87;;;;;;;-7.90;77.56;99083.25;4299153;81;21160;-83
2021/01/11 23:59:48;;;;;;;399.97;147.20;;;;;;;-7.83;77.40;99073.22;4335598;81;21653;-82
